THY5UL LTAI-LTFM
Flight info
| Callsign | THY5UL |
|---|---|
| Flight time | 1h 15m |
| Altitude | 40000 |
| Route | EKSEN UM855 SISPI |
| Aircraft | A359/H-SDE2E3GHIJ3J4J5LM1ORWXY/LB1D1 |
Departure
| Time | 2026-02-17 14:35 |
|---|---|
| Airport | Antalya International Airport (LTAI) |
Arrival
| Time | 2026-02-17 15:50 |
|---|---|
| Airport | İstanbul Airport (LTFM) |
| Time | Latitude | Longitude | Altitude | Speed | Heading |
|---|---|---|---|---|---|
| 2026-02-17 14:01 | 36.91306 | 30.79824 | 191 ft | 0 kts | 275° |
| 2026-02-17 14:21 | 36.91306 | 30.79826 | 191 ft | 1 kts | 275° |
| 2026-02-17 14:22 | 36.91306 | 30.79832 | 210 ft | 1 kts | 275° |
| 2026-02-17 14:22 | 36.91303 | 30.79871 | 204 ft | 2 kts | 275° |
| 2026-02-17 14:23 | 36.91292 | 30.79891 | 191 ft | 0 kts | 8° |
| 2026-02-17 14:28 | 36.91338 | 30.79900 | 206 ft | 9 kts | 8° |
| 2026-02-17 14:28 | 36.91412 | 30.79911 | 197 ft | 12 kts | 4° |
| 2026-02-17 14:28 | 36.91491 | 30.79900 | 207 ft | 11 kts | 319° |
| 2026-02-17 14:28 | 36.91519 | 30.79802 | 199 ft | 14 kts | 277° |
| 2026-02-17 14:29 | 36.91531 | 30.79672 | 201 ft | 16 kts | 276° |
| 2026-02-17 14:29 | 36.91535 | 30.79625 | 206 ft | 0 kts | 276° |
| 2026-02-17 14:33 | 36.91536 | 30.79618 | 208 ft | 6 kts | 276° |
| 2026-02-17 14:34 | 36.91543 | 30.79516 | 199 ft | 12 kts | 264° |
| 2026-02-17 14:34 | 36.91498 | 30.79471 | 209 ft | 11 kts | 193° |
| 2026-02-17 14:34 | 36.91269 | 30.79439 | 207 ft | 77 kts | 186° |
| 2026-02-17 14:35 | 36.89354 | 30.79212 | 1414 ft | 164 kts | 182° |
| 2026-02-17 14:35 | 36.88190 | 30.79008 | 2501 ft | 177 kts | 195° |
| 2026-02-17 14:35 | 36.87080 | 30.78415 | 3495 ft | 167 kts | 205° |
| 2026-02-17 14:35 | 36.86057 | 30.77838 | 4285 ft | 160 kts | 206° |
| 2026-02-17 14:36 | 36.84989 | 30.77236 | 4608 ft | 177 kts | 206° |
| 2026-02-17 14:36 | 36.83815 | 30.76631 | 5009 ft | 187 kts | 205° |
| 2026-02-17 14:36 | 36.82570 | 30.76037 | 5534 ft | 193 kts | 204° |
| 2026-02-17 14:36 | 36.81295 | 30.75454 | 6150 ft | 200 kts | 203° |
| 2026-02-17 14:37 | 36.79964 | 30.74856 | 6738 ft | 207 kts | 203° |
| 2026-02-17 14:37 | 36.78659 | 30.74108 | 7437 ft | 206 kts | 216° |
| 2026-02-17 14:37 | 36.77700 | 30.72826 | 8241 ft | 203 kts | 238° |
| 2026-02-17 14:37 | 36.77294 | 30.71074 | 8723 ft | 224 kts | 262° |
| 2026-02-17 14:38 | 36.77394 | 30.69042 | 9058 ft | 248 kts | 274° |
| 2026-02-17 14:38 | 36.77969 | 30.66912 | 9466 ft | 271 kts | 292° |
| 2026-02-17 14:38 | 36.79230 | 30.65077 | 10060 ft | 289 kts | 316° |
| 2026-02-17 14:39 | 36.83371 | 30.63860 | 10727 ft | 341 kts | 0° |
| 2026-02-17 14:39 | 36.85788 | 30.64159 | 11030 ft | 356 kts | 360° |
| 2026-02-17 14:39 | 36.88307 | 30.64287 | 11358 ft | 367 kts | 358° |
| 2026-02-17 14:39 | 36.90883 | 30.64379 | 11833 ft | 374 kts | 358° |
| 2026-02-17 14:40 | 36.93497 | 30.64461 | 12430 ft | 376 kts | 358° |
| 2026-02-17 14:40 | 36.96123 | 30.64538 | 13046 ft | 379 kts | 358° |
| 2026-02-17 14:40 | 37.01464 | 30.64687 | 14014 ft | 387 kts | 358° |
| 2026-02-17 14:41 | 37.04173 | 30.64760 | 14516 ft | 390 kts | 358° |
| 2026-02-17 14:41 | 37.06893 | 30.64832 | 14996 ft | 392 kts | 358° |
| 2026-02-17 14:41 | 37.09629 | 30.64905 | 15518 ft | 395 kts | 358° |
| 2026-02-17 14:41 | 37.12389 | 30.64978 | 16021 ft | 398 kts | 357° |
| 2026-02-17 14:42 | 37.15145 | 30.65051 | 16569 ft | 402 kts | 357° |
| 2026-02-17 14:42 | 37.17954 | 30.65125 | 17059 ft | 405 kts | 357° |
| 2026-02-17 14:42 | 37.20786 | 30.65200 | 17588 ft | 407 kts | 357° |
| 2026-02-17 14:43 | 37.26500 | 30.65349 | 18581 ft | 414 kts | 357° |
| 2026-02-17 14:43 | 37.29387 | 30.65426 | 19013 ft | 416 kts | 357° |
| 2026-02-17 14:43 | 37.32288 | 30.65504 | 19456 ft | 418 kts | 357° |
| 2026-02-17 14:43 | 37.35164 | 30.65582 | 19901 ft | 421 kts | 356° |
| 2026-02-17 14:44 | 37.38101 | 30.65661 | 20316 ft | 424 kts | 356° |
| 2026-02-17 14:44 | 37.41056 | 30.65739 | 20743 ft | 426 kts | 356° |
| 2026-02-17 14:44 | 37.44022 | 30.65819 | 21140 ft | 427 kts | 356° |
| 2026-02-17 14:44 | 37.47009 | 30.65899 | 21566 ft | 430 kts | 356° |
| 2026-02-17 14:45 | 37.50015 | 30.65978 | 21980 ft | 432 kts | 356° |
| 2026-02-17 14:45 | 37.53038 | 30.66059 | 22370 ft | 435 kts | 356° |
| 2026-02-17 14:45 | 37.56068 | 30.66141 | 22772 ft | 437 kts | 355° |
| 2026-02-17 14:45 | 37.59113 | 30.66222 | 23161 ft | 439 kts | 355° |
| 2026-02-17 14:46 | 37.62182 | 30.66303 | 23529 ft | 442 kts | 355° |
| 2026-02-17 14:46 | 37.65221 | 30.66385 | 23717 ft | 443 kts | 355° |
| 2026-02-17 14:46 | 37.68312 | 30.66467 | 23757 ft | 444 kts | 355° |
| 2026-02-17 14:47 | 37.74493 | 30.66633 | 23755 ft | 445 kts | 355° |
| 2026-02-17 14:47 | 37.77586 | 30.66717 | 23745 ft | 445 kts | 355° |
| 2026-02-17 14:47 | 37.80696 | 30.66801 | 23740 ft | 445 kts | 355° |
| 2026-02-17 14:47 | 37.83790 | 30.66885 | 23738 ft | 445 kts | 355° |
| 2026-02-17 14:48 | 37.86888 | 30.66968 | 23735 ft | 445 kts | 355° |
| 2026-02-17 14:48 | 37.89971 | 30.66890 | 23735 ft | 441 kts | 351° |
| 2026-02-17 14:48 | 37.92005 | 30.66700 | 23761 ft | 441 kts | 349° |
| 2026-02-17 14:48 | 37.95062 | 30.66301 | 24079 ft | 442 kts | 347° |
| 2026-02-17 14:49 | 37.99107 | 30.65678 | 24673 ft | 441 kts | 347° |
| 2026-02-17 14:49 | 38.01165 | 30.65358 | 24924 ft | 443 kts | 347° |
| 2026-02-17 14:49 | 38.04235 | 30.64910 | 25254 ft | 446 kts | 347° |
| 2026-02-17 14:49 | 38.07337 | 30.64485 | 25602 ft | 449 kts | 348° |
| 2026-02-17 14:50 | 38.10449 | 30.64072 | 25971 ft | 451 kts | 348° |
| 2026-02-17 14:50 | 38.13586 | 30.63664 | 26345 ft | 453 kts | 348° |
| 2026-02-17 14:50 | 38.16733 | 30.63255 | 26744 ft | 456 kts | 348° |
| 2026-02-17 14:51 | 38.23071 | 30.62431 | 27567 ft | 460 kts | 348° |
| 2026-02-17 14:51 | 38.26233 | 30.62018 | 27971 ft | 464 kts | 349° |
| 2026-02-17 14:51 | 38.29518 | 30.61807 | 28382 ft | 470 kts | 353° |
| 2026-02-17 14:51 | 38.32758 | 30.61709 | 28832 ft | 473 kts | 354° |
| 2026-02-17 14:52 | 38.36070 | 30.61649 | 29260 ft | 476 kts | 354° |
| 2026-02-17 14:52 | 38.39403 | 30.61612 | 29767 ft | 479 kts | 354° |
| 2026-02-17 14:52 | 38.42755 | 30.61584 | 30110 ft | 482 kts | 354° |
| 2026-02-17 14:52 | 38.46137 | 30.61554 | 30383 ft | 487 kts | 354° |
| 2026-02-17 14:53 | 38.49496 | 30.61522 | 30678 ft | 492 kts | 354° |
| 2026-02-17 14:53 | 38.52938 | 30.61487 | 30952 ft | 497 kts | 354° |
| 2026-02-17 14:53 | 38.56407 | 30.61449 | 31231 ft | 501 kts | 354° |
| 2026-02-17 14:53 | 38.59911 | 30.61410 | 31507 ft | 505 kts | 354° |
| 2026-02-17 14:54 | 38.63442 | 30.61371 | 31776 ft | 509 kts | 354° |
| 2026-02-17 14:54 | 38.66998 | 30.61313 | 32037 ft | 512 kts | 353° |
| 2026-02-17 14:54 | 38.70536 | 30.60840 | 32268 ft | 509 kts | 344° |
| 2026-02-17 14:55 | 38.77171 | 30.57979 | 32736 ft | 502 kts | 329° |
| 2026-02-17 14:55 | 38.80325 | 30.56044 | 32979 ft | 504 kts | 327° |
| 2026-02-17 14:55 | 38.83471 | 30.54000 | 33200 ft | 507 kts | 326° |
| 2026-02-17 14:55 | 38.86614 | 30.51905 | 33428 ft | 510 kts | 326° |
| 2026-02-17 14:56 | 38.89732 | 30.49815 | 33643 ft | 512 kts | 326° |
| 2026-02-17 14:56 | 38.92891 | 30.47705 | 33949 ft | 512 kts | 326° |
| 2026-02-17 14:56 | 38.96057 | 30.45602 | 34323 ft | 511 kts | 326° |
| 2026-02-17 14:56 | 38.99211 | 30.43517 | 34699 ft | 509 kts | 326° |
| 2026-02-17 14:57 | 39.02357 | 30.41441 | 35065 ft | 507 kts | 326° |
| 2026-02-17 14:57 | 39.05498 | 30.39369 | 35444 ft | 507 kts | 326° |
| 2026-02-17 14:57 | 39.08643 | 30.37295 | 35878 ft | 504 kts | 326° |
| 2026-02-17 14:57 | 39.11753 | 30.35241 | 36232 ft | 503 kts | 326° |
| 2026-02-17 14:58 | 39.14871 | 30.33177 | 36518 ft | 504 kts | 326° |
| 2026-02-17 14:58 | 39.17991 | 30.31109 | 36823 ft | 504 kts | 326° |
| 2026-02-17 14:58 | 39.21112 | 30.29039 | 37126 ft | 504 kts | 326° |
| 2026-02-17 14:59 | 39.27335 | 30.24905 | 37721 ft | 503 kts | 326° |
| 2026-02-17 14:59 | 39.30418 | 30.22853 | 37966 ft | 505 kts | 326° |
| 2026-02-17 14:59 | 39.33548 | 30.20766 | 38166 ft | 507 kts | 326° |
| 2026-02-17 14:59 | 39.36680 | 30.18679 | 38421 ft | 506 kts | 326° |
| 2026-02-17 15:00 | 39.39812 | 30.16590 | 38665 ft | 506 kts | 326° |
| 2026-02-17 15:00 | 39.42934 | 30.14507 | 38910 ft | 505 kts | 326° |
| 2026-02-17 15:00 | 39.46054 | 30.12423 | 39148 ft | 504 kts | 326° |
| 2026-02-17 15:00 | 39.49207 | 30.10421 | 39406 ft | 506 kts | 329° |
| 2026-02-17 15:01 | 39.52435 | 30.08587 | 39596 ft | 508 kts | 330° |
| 2026-02-17 15:01 | 39.55696 | 30.06831 | 39608 ft | 506 kts | 331° |
| 2026-02-17 15:01 | 39.62201 | 30.03361 | 39599 ft | 504 kts | 331° |
| 2026-02-17 15:02 | 39.68661 | 29.99826 | 39594 ft | 503 kts | 330° |
| 2026-02-17 15:03 | 39.78285 | 29.94447 | 39593 ft | 504 kts | 330° |
| 2026-02-17 15:03 | 39.84729 | 29.90815 | 39579 ft | 506 kts | 330° |
| 2026-02-17 15:04 | 39.91265 | 29.87356 | 39581 ft | 512 kts | 337° |
| 2026-02-17 15:04 | 39.98318 | 29.85510 | 39584 ft | 519 kts | 345° |
| 2026-02-17 15:05 | 40.05468 | 29.84017 | 39568 ft | 520 kts | 345° |
| 2026-02-17 15:05 | 40.12575 | 29.82518 | 39566 ft | 520 kts | 345° |
| 2026-02-17 15:06 | 40.19717 | 29.81000 | 39545 ft | 520 kts | 345° |
| 2026-02-17 15:06 | 40.26874 | 29.79471 | 39533 ft | 521 kts | 345° |
| 2026-02-17 15:07 | 40.34083 | 29.78344 | 39529 ft | 529 kts | 358° |
| 2026-02-17 15:07 | 40.37741 | 29.79091 | 39535 ft | 537 kts | 13° |
| 2026-02-17 15:07 | 40.41207 | 29.80981 | 39543 ft | 543 kts | 28° |
| 2026-02-17 15:07 | 40.44325 | 29.83800 | 39535 ft | 545 kts | 36° |
| 2026-02-17 15:08 | 40.50882 | 29.88610 | 39557 ft | 538 kts | 12° |
| 2026-02-17 15:08 | 40.54548 | 29.89405 | 39569 ft | 529 kts | 357° |
| 2026-02-17 15:08 | 40.58164 | 29.89086 | 39311 ft | 515 kts | 346° |
| 2026-02-17 15:09 | 40.61682 | 29.88177 | 38503 ft | 514 kts | 339° |
| 2026-02-17 15:09 | 40.65012 | 29.86541 | 37452 ft | 511 kts | 329° |
| 2026-02-17 15:09 | 40.68228 | 29.84531 | 36612 ft | 511 kts | 328° |
| 2026-02-17 15:09 | 40.71432 | 29.82529 | 35908 ft | 508 kts | 328° |
| 2026-02-17 15:10 | 40.74598 | 29.80597 | 35222 ft | 505 kts | 329° |
| 2026-02-17 15:10 | 40.77785 | 29.78685 | 34547 ft | 501 kts | 329° |
| 2026-02-17 15:10 | 40.80866 | 29.76694 | 33666 ft | 482 kts | 322° |
| 2026-02-17 15:11 | 40.85292 | 29.70699 | 31085 ft | 442 kts | 296° |
| 2026-02-17 15:11 | 40.86903 | 29.67287 | 30027 ft | 432 kts | 295° |
| 2026-02-17 15:11 | 40.88222 | 29.64562 | 29567 ft | 419 kts | 298° |
| 2026-02-17 15:11 | 40.90155 | 29.61956 | 29365 ft | 426 kts | 316° |
| 2026-02-17 15:12 | 40.92828 | 29.60091 | 29187 ft | 446 kts | 333° |
| 2026-02-17 15:12 | 40.95886 | 29.59280 | 29038 ft | 464 kts | 348° |
| 2026-02-17 15:12 | 40.98494 | 29.58935 | 28801 ft | 464 kts | 344° |
| 2026-02-17 15:12 | 41.01517 | 29.57653 | 28549 ft | 452 kts | 326° |
| 2026-02-17 15:13 | 41.04060 | 29.55344 | 28358 ft | 439 kts | 310° |
| 2026-02-17 15:13 | 41.05967 | 29.52175 | 28275 ft | 442 kts | 294° |
| 2026-02-17 15:13 | 41.07575 | 29.48650 | 28169 ft | 451 kts | 298° |
| 2026-02-17 15:13 | 41.09665 | 29.45476 | 28000 ft | 464 kts | 312° |
| 2026-02-17 15:14 | 41.12383 | 29.43074 | 27573 ft | 476 kts | 328° |
| 2026-02-17 15:14 | 41.15550 | 29.41662 | 26928 ft | 484 kts | 343° |
| 2026-02-17 15:14 | 41.18884 | 29.41402 | 26301 ft | 491 kts | 360° |
| 2026-02-17 15:15 | 41.25337 | 29.44382 | 25091 ft | 498 kts | 32° |
| 2026-02-17 15:15 | 41.27915 | 29.47422 | 24495 ft | 494 kts | 49° |
| 2026-02-17 15:15 | 41.29786 | 29.51196 | 23926 ft | 487 kts | 65° |
| 2026-02-17 15:15 | 41.30809 | 29.55426 | 23490 ft | 477 kts | 82° |
| 2026-02-17 15:16 | 41.30925 | 29.59771 | 23166 ft | 467 kts | 99° |
| 2026-02-17 15:16 | 41.30150 | 29.63911 | 22787 ft | 458 kts | 116° |
| 2026-02-17 15:16 | 41.28560 | 29.67521 | 22389 ft | 448 kts | 133° |
| 2026-02-17 15:16 | 41.26319 | 29.70292 | 22025 ft | 435 kts | 150° |
| 2026-02-17 15:17 | 41.23640 | 29.72003 | 21640 ft | 421 kts | 167° |
| 2026-02-17 15:17 | 41.20805 | 29.72818 | 21263 ft | 414 kts | 174° |
| 2026-02-17 15:17 | 41.17956 | 29.73135 | 20772 ft | 405 kts | 183° |
| 2026-02-17 15:17 | 41.15195 | 29.72741 | 20247 ft | 397 kts | 195° |
| 2026-02-17 15:18 | 41.12653 | 29.71562 | 20013 ft | 380 kts | 208° |
| 2026-02-17 15:18 | 41.10598 | 29.69654 | 19895 ft | 345 kts | 221° |
| 2026-02-17 15:18 | 41.08883 | 29.67623 | 19743 ft | 316 kts | 222° |
| 2026-02-17 15:19 | 41.05782 | 29.63886 | 19487 ft | 299 kts | 222° |
| 2026-02-17 15:19 | 41.04228 | 29.62040 | 19334 ft | 300 kts | 221° |
| 2026-02-17 15:19 | 41.02663 | 29.60198 | 19259 ft | 302 kts | 221° |
| 2026-02-17 15:19 | 41.01100 | 29.58366 | 19134 ft | 300 kts | 221° |
| 2026-02-17 15:20 | 40.99536 | 29.56535 | 18987 ft | 299 kts | 221° |
| 2026-02-17 15:20 | 40.97984 | 29.54723 | 18759 ft | 297 kts | 221° |
| 2026-02-17 15:20 | 40.96469 | 29.52872 | 18518 ft | 296 kts | 225° |
| 2026-02-17 15:20 | 40.95285 | 29.50634 | 18277 ft | 298 kts | 242° |
| 2026-02-17 15:21 | 40.94727 | 29.47998 | 18155 ft | 302 kts | 258° |
| 2026-02-17 15:21 | 40.94568 | 29.45199 | 17964 ft | 307 kts | 262° |
| 2026-02-17 15:21 | 40.94490 | 29.42379 | 17689 ft | 307 kts | 263° |
| 2026-02-17 15:21 | 40.94415 | 29.39590 | 17410 ft | 306 kts | 263° |
| 2026-02-17 15:22 | 40.94331 | 29.36784 | 17136 ft | 305 kts | 262° |
| 2026-02-17 15:22 | 40.94241 | 29.33992 | 16871 ft | 303 kts | 262° |
| 2026-02-17 15:22 | 40.94148 | 29.31212 | 16616 ft | 302 kts | 262° |
| 2026-02-17 15:23 | 40.93955 | 29.25691 | 16070 ft | 299 kts | 262° |
| 2026-02-17 15:23 | 40.93892 | 29.22938 | 15820 ft | 301 kts | 266° |
| 2026-02-17 15:23 | 40.94275 | 29.20190 | 15555 ft | 310 kts | 284° |
| 2026-02-17 15:23 | 40.95431 | 29.17727 | 15276 ft | 323 kts | 307° |
| 2026-02-17 15:24 | 40.97269 | 29.16024 | 14998 ft | 334 kts | 331° |
| 2026-02-17 15:24 | 40.99499 | 29.14980 | 14680 ft | 337 kts | 339° |
| 2026-02-17 15:24 | 41.01721 | 29.14109 | 14387 ft | 336 kts | 339° |
| 2026-02-17 15:24 | 41.03959 | 29.13233 | 14092 ft | 335 kts | 339° |
| 2026-02-17 15:25 | 41.06231 | 29.12541 | 13800 ft | 338 kts | 351° |
| 2026-02-17 15:25 | 41.08574 | 29.12871 | 13498 ft | 341 kts | 15° |
| 2026-02-17 15:25 | 41.10810 | 29.13911 | 13192 ft | 341 kts | 21° |
| 2026-02-17 15:25 | 41.13012 | 29.15067 | 12877 ft | 339 kts | 21° |
| 2026-02-17 15:26 | 41.15199 | 29.16215 | 12569 ft | 337 kts | 21° |
| 2026-02-17 15:26 | 41.17373 | 29.17345 | 12267 ft | 335 kts | 21° |
| 2026-02-17 15:26 | 41.19547 | 29.18463 | 11973 ft | 335 kts | 21° |
| 2026-02-17 15:27 | 41.23879 | 29.20684 | 11389 ft | 331 kts | 21° |
| 2026-02-17 15:27 | 41.26004 | 29.21772 | 11224 ft | 321 kts | 21° |
| 2026-02-17 15:27 | 41.28060 | 29.22824 | 10980 ft | 313 kts | 21° |
| 2026-02-17 15:27 | 41.30045 | 29.23916 | 10892 ft | 305 kts | 28° |
| 2026-02-17 15:28 | 41.31755 | 29.25578 | 10973 ft | 304 kts | 43° |
| 2026-02-17 15:28 | 41.33291 | 29.27501 | 10982 ft | 303 kts | 46° |
| 2026-02-17 15:28 | 41.34779 | 29.29444 | 11000 ft | 303 kts | 47° |
| 2026-02-17 15:28 | 41.36292 | 29.31415 | 10999 ft | 303 kts | 46° |
| 2026-02-17 15:29 | 41.37960 | 29.33146 | 11001 ft | 306 kts | 33° |
| 2026-02-17 15:29 | 41.39797 | 29.34573 | 11001 ft | 305 kts | 29° |
| 2026-02-17 15:29 | 41.41660 | 29.35937 | 11001 ft | 305 kts | 29° |
| 2026-02-17 15:29 | 41.43523 | 29.37300 | 11002 ft | 305 kts | 29° |
| 2026-02-17 15:30 | 41.45439 | 29.38523 | 11005 ft | 305 kts | 18° |
| 2026-02-17 15:30 | 41.47478 | 29.39319 | 11004 ft | 304 kts | 12° |
| 2026-02-17 15:30 | 41.49536 | 29.39998 | 11004 ft | 304 kts | 12° |
| 2026-02-17 15:31 | 41.53630 | 29.41282 | 10982 ft | 303 kts | 6° |
| 2026-02-17 15:31 | 41.55717 | 29.41453 | 10999 ft | 300 kts | 357° |
| 2026-02-17 15:31 | 41.57805 | 29.41422 | 10993 ft | 300 kts | 355° |
| 2026-02-17 15:31 | 41.59843 | 29.41028 | 10999 ft | 293 kts | 336° |
| 2026-02-17 15:32 | 41.61495 | 29.39588 | 11001 ft | 278 kts | 305° |
| 2026-02-17 15:32 | 41.62389 | 29.37400 | 11012 ft | 261 kts | 278° |
| 2026-02-17 15:32 | 41.62493 | 29.35028 | 11041 ft | 253 kts | 259° |
| 2026-02-17 15:32 | 41.62261 | 29.32703 | 11067 ft | 252 kts | 255° |
| 2026-02-17 15:33 | 41.61979 | 29.30396 | 11104 ft | 252 kts | 255° |
| 2026-02-17 15:33 | 41.61700 | 29.28087 | 10893 ft | 250 kts | 255° |
| 2026-02-17 15:33 | 41.61431 | 29.25791 | 10349 ft | 249 kts | 255° |
| 2026-02-17 15:33 | 41.61172 | 29.23510 | 9738 ft | 248 kts | 255° |
| 2026-02-17 15:34 | 41.60917 | 29.21259 | 9124 ft | 247 kts | 255° |
| 2026-02-17 15:34 | 41.60661 | 29.18997 | 8455 ft | 245 kts | 255° |
| 2026-02-17 15:34 | 41.60409 | 29.16760 | 7802 ft | 242 kts | 255° |
| 2026-02-17 15:35 | 41.59914 | 29.12357 | 6537 ft | 237 kts | 255° |
| 2026-02-17 15:35 | 41.59670 | 29.10186 | 5924 ft | 236 kts | 255° |
| 2026-02-17 15:35 | 41.59511 | 29.08749 | 5480 ft | 234 kts | 255° |
| 2026-02-17 15:35 | 41.59269 | 29.06605 | 5077 ft | 233 kts | 255° |
| 2026-02-17 15:36 | 41.59024 | 29.04456 | 4982 ft | 234 kts | 255° |
| 2026-02-17 15:36 | 41.58780 | 29.02311 | 4968 ft | 233 kts | 255° |
| 2026-02-17 15:36 | 41.58534 | 29.00153 | 4978 ft | 235 kts | 255° |
| 2026-02-17 15:36 | 41.58292 | 28.98006 | 4966 ft | 230 kts | 255° |
| 2026-02-17 15:37 | 41.58222 | 28.95869 | 4966 ft | 235 kts | 270° |
| 2026-02-17 15:37 | 41.58770 | 28.93814 | 4968 ft | 245 kts | 295° |
| 2026-02-17 15:37 | 41.59804 | 28.91968 | 4971 ft | 248 kts | 303° |
| 2026-02-17 15:37 | 41.60920 | 28.90209 | 4972 ft | 248 kts | 304° |
| 2026-02-17 15:38 | 41.62039 | 28.88450 | 4969 ft | 248 kts | 304° |
| 2026-02-17 15:38 | 41.63149 | 28.86685 | 4971 ft | 248 kts | 303° |
| 2026-02-17 15:38 | 41.64191 | 28.84864 | 4966 ft | 244 kts | 294° |
| 2026-02-17 15:39 | 41.65488 | 28.80766 | 4962 ft | 238 kts | 283° |
| 2026-02-17 15:39 | 41.65836 | 28.78639 | 4968 ft | 230 kts | 264° |
| 2026-02-17 15:39 | 41.65506 | 28.76633 | 4961 ft | 217 kts | 238° |
| 2026-02-17 15:39 | 41.64559 | 28.75136 | 4964 ft | 209 kts | 213° |
| 2026-02-17 15:40 | 41.63317 | 28.74283 | 4959 ft | 192 kts | 201° |
| 2026-02-17 15:40 | 41.62126 | 28.73686 | 4953 ft | 177 kts | 199° |
| 2026-02-17 15:40 | 41.61008 | 28.73141 | 4956 ft | 169 kts | 199° |
| 2026-02-17 15:40 | 41.59904 | 28.72605 | 4958 ft | 168 kts | 199° |
| 2026-02-17 15:41 | 41.58802 | 28.72233 | 4959 ft | 155 kts | 190° |
| 2026-02-17 15:41 | 41.57796 | 28.72152 | 4961 ft | 136 kts | 182° |
| 2026-02-17 15:41 | 41.56875 | 28.72172 | 4963 ft | 131 kts | 182° |
| 2026-02-17 15:41 | 41.55959 | 28.72193 | 4966 ft | 131 kts | 182° |
| 2026-02-17 15:42 | 41.55044 | 28.72192 | 4965 ft | 131 kts | 184° |
| 2026-02-17 15:42 | 41.54163 | 28.72164 | 4957 ft | 121 kts | 182° |
| 2026-02-17 15:42 | 41.53353 | 28.72180 | 4949 ft | 113 kts | 182° |
| 2026-02-17 15:43 | 41.51781 | 28.72214 | 4822 ft | 118 kts | 182° |
| 2026-02-17 15:43 | 41.50957 | 28.72216 | 4531 ft | 117 kts | 183° |
| 2026-02-17 15:43 | 41.50158 | 28.72216 | 4319 ft | 113 kts | 182° |
| 2026-02-17 15:43 | 41.49379 | 28.72236 | 4152 ft | 111 kts | 182° |
| 2026-02-17 15:44 | 41.48610 | 28.72256 | 4001 ft | 110 kts | 182° |
| 2026-02-17 15:44 | 41.47843 | 28.72274 | 3858 ft | 110 kts | 182° |
| 2026-02-17 15:44 | 41.47075 | 28.72292 | 3707 ft | 110 kts | 182° |
| 2026-02-17 15:44 | 41.46309 | 28.72309 | 3565 ft | 110 kts | 181° |
| 2026-02-17 15:45 | 41.45541 | 28.72328 | 3412 ft | 110 kts | 181° |
| 2026-02-17 15:45 | 41.44772 | 28.72346 | 3254 ft | 110 kts | 181° |
| 2026-02-17 15:45 | 41.44016 | 28.72364 | 3127 ft | 110 kts | 181° |
| 2026-02-17 15:45 | 41.43253 | 28.72382 | 2976 ft | 108 kts | 181° |
| 2026-02-17 15:46 | 41.42503 | 28.72399 | 2836 ft | 107 kts | 181° |
| 2026-02-17 15:46 | 41.41757 | 28.72416 | 2698 ft | 107 kts | 181° |
| 2026-02-17 15:46 | 41.41013 | 28.72433 | 2551 ft | 107 kts | 180° |
| 2026-02-17 15:47 | 41.39517 | 28.72468 | 2260 ft | 108 kts | 180° |
| 2026-02-17 15:47 | 41.38759 | 28.72486 | 2116 ft | 109 kts | 180° |
| 2026-02-17 15:47 | 41.38000 | 28.72504 | 1970 ft | 109 kts | 180° |
| 2026-02-17 15:47 | 41.37238 | 28.72520 | 1825 ft | 110 kts | 179° |
| 2026-02-17 15:48 | 41.36471 | 28.72539 | 1673 ft | 111 kts | 178° |
| 2026-02-17 15:48 | 41.35698 | 28.72558 | 1514 ft | 112 kts | 178° |
| 2026-02-17 15:48 | 41.34924 | 28.72575 | 1376 ft | 113 kts | 178° |
| 2026-02-17 15:48 | 41.34131 | 28.72594 | 1210 ft | 116 kts | 178° |
| 2026-02-17 15:49 | 41.33311 | 28.72612 | 1043 ft | 119 kts | 178° |
| 2026-02-17 15:49 | 41.32493 | 28.72639 | 850 ft | 117 kts | 177° |
| 2026-02-17 15:49 | 41.31688 | 28.72646 | 732 ft | 119 kts | 180° |
| 2026-02-17 15:49 | 41.30842 | 28.72675 | 595 ft | 124 kts | 178° |
| 2026-02-17 15:50 | 41.29961 | 28.72691 | 397 ft | 125 kts | 179° |
| 2026-02-17 15:50 | 41.29148 | 28.72705 | 335 ft | 82 kts | 179° |
| 2026-02-17 15:50 | 41.28673 | 28.72719 | 336 ft | 29 kts | 178° |
| 2026-02-17 15:51 | 41.28465 | 28.72726 | 336 ft | 31 kts | 178° |
| 2026-02-17 15:51 | 41.28247 | 28.72729 | 336 ft | 32 kts | 177° |
| 2026-02-17 15:51 | 41.28023 | 28.72735 | 339 ft | 29 kts | 179° |
| 2026-02-17 15:51 | 41.27983 | 28.72738 | 337 ft | 1 kts | 175° |
| 2026-02-17 15:52 | 41.27945 | 28.72742 | 335 ft | 11 kts | 175° |
| 2026-02-17 15:52 | 41.27846 | 28.72783 | 336 ft | 20 kts | 160° |
| 2026-02-17 15:52 | 41.27771 | 28.72836 | 336 ft | 1 kts | 149° |
| 2026-02-17 15:52 | 41.27734 | 28.72865 | 336 ft | 12 kts | 149° |
| 2026-02-17 15:53 | 41.27695 | 28.72895 | 335 ft | 0 kts | 150° |
| 2026-02-17 15:54 | 41.27693 | 28.72896 | 340 ft | 2 kts | 150° |
| 2026-02-17 15:54 | 41.27512 | 28.72973 | 336 ft | 15 kts | 178° |
| 2026-02-17 15:55 | 41.27403 | 28.72975 | 338 ft | 18 kts | 182° |
| 2026-02-17 15:55 | 41.27266 | 28.72979 | 335 ft | 22 kts | 177° |
| 2026-02-17 15:55 | 41.27120 | 28.72985 | 338 ft | 15 kts | 177° |
| 2026-02-17 15:55 | 41.27007 | 28.72988 | 336 ft | 17 kts | 180° |
| 2026-02-17 15:56 | 41.26901 | 28.72997 | 336 ft | 14 kts | 159° |
| 2026-02-17 15:56 | 41.26868 | 28.73104 | 337 ft | 15 kts | 94° |
| 2026-02-17 15:56 | 41.26867 | 28.73249 | 337 ft | 16 kts | 90° |
| 2026-02-17 15:56 | 41.26867 | 28.73396 | 337 ft | 7 kts | 104° |
| 2026-02-17 15:57 | 41.26849 | 28.73431 | 336 ft | 4 kts | 143° |
| 2026-02-17 15:57 | 41.26811 | 28.73441 | 337 ft | 7 kts | 174° |
| 2026-02-17 15:57 | 41.26802 | 28.73441 | 339 ft | 0 kts | 178° |
| 2026-02-17 15:57 | 41.26787 | 28.73442 | 336 ft | 0 kts | 178° |
| 2026-02-17 15:59 | 41.26787 | 28.73441 | 336 ft | 0 kts | 178° |
| 2026-02-17 15:59 | 41.26787 | 28.73442 | 336 ft | 0 kts | 178° |
| 2026-02-17 16:01 | 41.26787 | 28.73441 | 340 ft | 0 kts | 178° |
| 2026-02-17 16:01 | 41.26787 | 28.73442 | 340 ft | 0 kts | 178° |